createdAt,value
2023-04-09T00:00:05.451Z,91.2787
2023-04-09T00:01:08.533Z,91.2695
2023-04-09T00:02:11.697Z,91.2479
2023-04-09T00:03:15.106Z,91.2012
2023-04-09T00:04:18.346Z,91.2635
2023-04-09T00:05:21.384Z,91.2953
2023-04-09T00:06:24.468Z,91.2965
2023-04-09T00:07:27.553Z,91.3521
2023-04-09T00:08:30.664Z,91.2984
2023-04-09T00:09:33.738Z,91.3615
2023-04-09T00:10:36.804Z,91.3664
2023-04-09T00:11:39.869Z,91.3419
2023-04-09T00:12:42.981Z,91.3831
2023-04-09T00:13:46.108Z,91.5089
2023-04-09T00:14:49.184Z,91.6442
2023-04-09T00:15:52.299Z,91.6269
2023-04-09T00:16:55.329Z,91.5538
2023-04-09T00:17:58.627Z,91.5748
2023-04-09T00:19:01.717Z,91.6271
2023-04-09T00:20:04.814Z,91.7177
2023-04-09T00:21:07.898Z,91.7233
2023-04-09T00:22:10.997Z,91.9430
2023-04-09T00:23:14.047Z,92.1022
2023-04-09T00:24:17.142Z,92.1926
2023-04-09T00:25:20.235Z,92.2868
2023-04-09T00:26:23.345Z,92.3342
2023-04-09T00:27:26.400Z,92.3179
2023-04-09T00:28:29.478Z,92.4409
2023-04-09T00:29:32.560Z,92.4957
2023-04-09T00:30:35.639Z,92.4803
2023-04-09T00:31:38.753Z,92.5067
2023-04-09T00:32:41.831Z,92.5907
2023-04-09T00:33:45.021Z,92.6288
2023-04-09T00:34:48.120Z,92.7693
2023-04-09T00:35:51.239Z,92.7989
2023-04-09T00:36:54.298Z,92.7727
2023-04-09T00:37:57.349Z,92.8119
2023-04-09T00:39:00.449Z,92.8610
2023-04-09T00:40:03.523Z,92.8910
2023-04-09T00:41:06.619Z,92.8920
2023-04-09T00:42:09.694Z,92.9097
2023-04-09T00:43:12.823Z,93.0254
2023-04-09T00:44:15.896Z,93.0627
2023-04-09T00:45:18.988Z,93.1235
2023-04-09T00:46:22.319Z,93.1088
2023-04-09T00:47:25.369Z,93.1534
2023-04-09T00:48:28.716Z,93.1950
2023-04-09T00:49:31.789Z,93.1518
2023-04-09T00:50:34.885Z,93.0636
2023-04-09T00:51:37.951Z,93.0663
2023-04-09T00:52:41.049Z,93.0098
2023-04-09T00:53:44.105Z,93.0220
2023-04-09T00:54:47.205Z,93.0680
2023-04-09T00:55:50.300Z,93.0109
2023-04-09T00:56:53.395Z,92.9248
2023-04-09T00:57:56.425Z,92.8602
2023-04-09T00:58:59.535Z,92.9174
2023-04-09T01:00:02.613Z,92.9263
2023-04-09T01:01:05.744Z,92.8750
2023-04-09T01:02:08.846Z,92.9132
2023-04-09T01:03:12.036Z,92.6629
2023-04-09T01:04:15.082Z,92.3860
2023-04-09T01:05:18.195Z,92.0766
2023-04-09T01:06:21.507Z,92.1204
2023-04-09T01:07:24.600Z,92.2324
2023-04-09T01:08:28.012Z,92.3204
2023-04-09T01:09:31.111Z,92.4378
2023-04-09T01:10:34.179Z,92.1868
2023-04-09T01:11:37.484Z,91.9190
2023-04-09T01:12:40.545Z,91.9042
2023-04-09T01:13:43.933Z,91.6790
2023-04-09T01:14:47.034Z,91.8399
2023-04-09T01:15:50.125Z,91.8446
2023-04-09T01:16:53.655Z,91.9254
2023-04-09T01:17:56.779Z,91.8649
2023-04-09T01:18:59.956Z,91.9853
2023-04-09T01:20:03.025Z,91.9202
2023-04-09T01:21:06.164Z,91.9975
2023-04-09T01:22:09.226Z,91.9445
2023-04-09T01:23:12.285Z,92.0007
2023-04-09T01:24:15.409Z,92.0590
2023-04-09T01:25:18.451Z,92.0629
2023-04-09T01:26:21.572Z,91.9410
2023-04-09T01:27:24.658Z,91.8827
2023-04-09T01:28:27.765Z,91.8803
2023-04-09T01:29:30.824Z,92.0472
2023-04-09T01:30:33.920Z,92.0241
2023-04-09T01:31:37.015Z,92.0533
2023-04-09T01:32:40.164Z,92.2281
2023-04-09T01:33:43.297Z,92.2459
2023-04-09T01:34:46.396Z,92.2386
2023-04-09T01:35:49.557Z,92.2546
2023-04-09T01:36:52.601Z,92.3095
2023-04-09T01:37:55.676Z,92.3354
2023-04-09T01:38:58.769Z,92.4027
2023-04-09T01:40:01.832Z,92.4238
2023-04-09T01:41:04.911Z,92.6535
2023-04-09T01:42:07.997Z,92.7075
2023-04-09T01:43:11.076Z,92.6461
2023-04-09T01:44:14.363Z,92.6985
2023-04-09T01:45:17.437Z,92.7824
2023-04-09T01:46:20.870Z,92.7454
2023-04-09T01:47:24.007Z,92.7966
2023-04-09T01:48:27.078Z,92.8971
2023-04-09T01:49:30.166Z,92.8684
2023-04-09T01:50:33.256Z,92.8522
2023-04-09T01:51:36.349Z,92.9009
2023-04-09T01:52:39.445Z,92.9212
2023-04-09T01:53:42.530Z,92.8953
2023-04-09T01:54:45.584Z,93.0962
2023-04-09T01:55:48.694Z,93.1029
2023-04-09T01:56:51.750Z,93.0767
2023-04-09T01:57:54.865Z,93.1813
2023-04-09T01:58:57.944Z,93.1939
2023-04-09T02:00:01.001Z,93.1317
2023-04-09T02:01:04.098Z,93.1044
2023-04-09T02:02:07.172Z,93.1407
2023-04-09T02:03:10.309Z,93.1350
2023-04-09T02:04:13.358Z,93.1628
2023-04-09T02:05:23.977Z,93.2025
2023-04-09T02:06:27.103Z,93.2982
2023-04-09T02:07:30.172Z,93.4693
2023-04-09T02:08:33.420Z,93.4156
2023-04-09T02:09:36.533Z,93.3653
2023-04-09T02:10:39.705Z,93.2047
2023-04-09T02:11:42.792Z,93.2361
2023-04-09T02:12:45.937Z,93.4123
2023-04-09T02:13:49.073Z,93.3569
2023-04-09T02:14:52.135Z,93.4246
2023-04-09T02:15:55.231Z,93.3210
2023-04-09T02:16:58.297Z,93.1796
2023-04-09T02:18:01.416Z,93.0432
2023-04-09T02:19:04.503Z,93.2256
2023-04-09T02:20:07.600Z,93.3898
2023-04-09T02:21:10.666Z,93.2026
2023-04-09T02:22:13.798Z,93.1154
2023-04-09T02:23:16.881Z,92.7893
2023-04-09T02:24:20.130Z,92.4565
2023-04-09T02:25:23.201Z,92.4244
2023-04-09T02:26:26.539Z,92.5041
2023-04-09T02:27:29.626Z,92.4598
2023-04-09T02:28:32.732Z,92.4130
2023-04-09T02:29:35.808Z,92.3984
2023-04-09T02:30:38.915Z,92.4505
2023-04-09T02:31:42.014Z,92.4378
2023-04-09T02:32:45.115Z,92.3894
2023-04-09T02:33:48.175Z,92.4201
2023-04-09T02:34:51.396Z,92.5788
2023-04-09T02:35:54.459Z,92.6735
2023-04-09T02:36:57.657Z,92.7503
2023-04-09T02:38:00.736Z,92.8444
2023-04-09T02:39:03.871Z,92.7610
2023-04-09T02:40:06.953Z,92.6928
2023-04-09T02:41:10.068Z,92.7664
2023-04-09T02:42:13.186Z,92.7479
2023-04-09T02:43:16.255Z,92.7687
2023-04-09T02:44:19.574Z,92.7352
2023-04-09T02:45:22.677Z,92.6944
2023-04-09T02:46:26.048Z,92.7131
2023-04-09T02:47:29.112Z,92.5988
2023-04-09T02:48:32.212Z,92.3535
2023-04-09T02:49:35.290Z,92.2315
2023-04-09T02:50:38.448Z,92.2273
2023-04-09T02:51:41.508Z,92.2915
2023-04-09T02:52:44.628Z,92.3983
2023-04-09T02:53:47.694Z,92.3624
2023-04-09T02:54:50.780Z,92.4882
2023-04-09T02:55:53.888Z,92.7142
2023-04-09T02:56:56.992Z,92.5999
2023-04-09T02:58:00.079Z,92.5224
2023-04-09T02:59:03.167Z,92.5940
2023-04-09T03:00:06.251Z,92.6885
2023-04-09T03:01:09.366Z,92.5767
2023-04-09T03:02:12.474Z,92.6555
2023-04-09T03:03:15.705Z,92.8344
2023-04-09T03:04:18.907Z,92.9990
2023-04-09T03:05:22.038Z,93.0827
2023-04-09T03:06:25.186Z,93.2529
2023-04-09T03:07:28.221Z,93.3773
2023-04-09T03:08:31.300Z,93.4466
2023-04-09T03:09:34.411Z,93.4914
2023-04-09T03:10:37.482Z,93.6940
2023-04-09T03:11:40.857Z,93.9914
2023-04-09T03:12:43.915Z,94.0803
2023-04-09T03:13:46.997Z,93.9974
2023-04-09T03:14:50.082Z,94.1549
2023-04-09T03:15:53.196Z,94.2863
2023-04-09T03:16:56.291Z,94.3164
2023-04-09T03:17:59.507Z,94.4544
2023-04-09T03:19:02.595Z,94.4096
2023-04-09T03:20:05.690Z,94.3869
2023-04-09T03:21:08.764Z,94.2379
2023-04-09T03:22:11.897Z,94.1022
2023-04-09T03:23:15.019Z,94.1164
2023-04-09T03:24:18.112Z,94.0710
2023-04-09T03:25:21.215Z,94.0422
2023-04-09T03:26:24.298Z,93.9559
2023-04-09T03:27:27.438Z,93.6533
2023-04-09T03:28:30.528Z,93.7263
2023-04-09T03:29:33.621Z,93.8691
2023-04-09T03:30:36.710Z,93.9298
2023-04-09T03:31:39.877Z,93.8122
2023-04-09T03:32:43.035Z,93.8361
2023-04-09T03:33:46.146Z,93.8387
2023-04-09T03:34:49.220Z,93.9032
2023-04-09T03:35:52.380Z,93.8867
2023-04-09T03:36:55.451Z,93.8312
2023-04-09T03:37:58.572Z,93.9863
2023-04-09T03:39:01.814Z,93.9775
2023-04-09T03:40:04.949Z,94.0369
2023-04-09T03:41:08.032Z,94.2072
2023-04-09T03:42:11.105Z,94.2182
2023-04-09T03:43:14.201Z,94.2475
2023-04-09T03:44:17.570Z,94.3425
2023-04-09T03:45:20.642Z,94.3808
2023-04-09T03:46:23.935Z,94.4110
2023-04-09T03:47:27.084Z,94.4695
2023-04-09T03:48:30.166Z,94.5500
2023-04-09T03:49:33.248Z,94.5552
2023-04-09T03:50:36.334Z,94.6920
2023-04-09T03:51:39.671Z,94.9565
2023-04-09T03:52:42.772Z,95.1614
2023-04-09T03:53:45.868Z,95.1140
2023-04-09T03:54:49.116Z,95.0347
2023-04-09T03:55:52.176Z,95.0812
2023-04-09T03:56:55.271Z,95.1825
2023-04-09T03:57:58.362Z,95.1643
2023-04-09T03:59:01.658Z,95.2584
2023-04-09T04:00:04.745Z,95.4536
2023-04-09T04:01:07.837Z,95.4384
2023-04-09T04:02:11.211Z,95.3278
2023-04-09T04:03:14.552Z,95.2570
2023-04-09T04:04:18.005Z,95.1994
2023-04-09T04:05:18.502Z,95.1648
2023-04-09T04:06:21.592Z,95.1322
2023-04-09T04:07:24.689Z,95.0129
2023-04-09T04:08:27.785Z,94.9755
2023-04-09T04:09:30.941Z,95.0071
2023-04-09T04:10:34.013Z,95.0333
2023-04-09T04:11:37.300Z,94.9920
2023-04-09T04:12:40.375Z,95.0377
2023-04-09T04:13:43.487Z,95.2088
2023-04-09T04:14:46.606Z,95.2840
2023-04-09T04:15:49.681Z,95.3440
2023-04-09T04:16:52.843Z,95.4164
2023-04-09T04:17:55.931Z,95.6586
2023-04-09T04:18:58.995Z,95.7254
2023-04-09T04:20:02.122Z,95.7959
2023-04-09T04:21:05.215Z,95.7796
2023-04-09T04:22:08.306Z,95.7201
2023-04-09T04:23:11.378Z,95.6079
2023-04-09T04:24:14.493Z,95.8141
2023-04-09T04:25:17.592Z,95.7693
2023-04-09T04:26:20.703Z,95.7309
2023-04-09T04:27:23.796Z,95.9737
2023-04-09T04:28:26.890Z,96.1333
2023-04-09T04:29:28.153Z,96.1479
2023-04-09T04:30:31.308Z,96.1558
2023-04-09T04:31:34.396Z,96.0978
2023-04-09T04:32:37.717Z,95.8969
2023-04-09T04:33:40.810Z,95.7091
2023-04-09T04:34:43.883Z,95.8167
2023-04-09T04:35:47.046Z,95.6780
2023-04-09T04:36:50.112Z,95.1151
2023-04-09T04:37:53.207Z,94.8118
2023-04-09T04:38:56.310Z,94.5992
2023-04-09T04:39:59.403Z,94.5766
2023-04-09T04:41:02.511Z,94.5837
2023-04-09T04:42:05.766Z,94.4480
2023-04-09T04:43:08.882Z,94.5392
2023-04-09T04:44:11.984Z,94.5982
2023-04-09T04:45:15.062Z,94.6010
2023-04-09T04:46:18.236Z,94.6254
2023-04-09T04:47:21.376Z,94.5344
2023-04-09T04:48:24.452Z,94.5210
2023-04-09T04:49:27.767Z,94.4982
2023-04-09T04:50:30.886Z,94.3374
2023-04-09T04:51:33.987Z,94.3052
2023-04-09T04:52:37.146Z,94.2526
2023-04-09T04:53:40.233Z,94.0620
2023-04-09T04:54:43.537Z,93.9957
2023-04-09T04:55:46.618Z,93.9474
2023-04-09T04:56:49.756Z,93.9496
2023-04-09T04:57:52.839Z,93.7870
2023-04-09T04:58:55.928Z,93.7836
2023-04-09T04:59:59.032Z,93.5610
2023-04-09T05:01:02.201Z,93.4692
2023-04-09T05:02:05.332Z,93.5355
2023-04-09T05:03:08.611Z,93.6695
2023-04-09T05:04:11.712Z,93.6893
2023-04-09T05:05:14.907Z,93.8163
2023-04-09T05:06:18.002Z,93.8585
2023-04-09T05:07:21.145Z,93.8395
2023-04-09T05:08:24.250Z,93.8655
2023-04-09T05:09:27.337Z,93.8001
2023-04-09T05:10:30.445Z,93.6520
2023-04-09T05:11:33.535Z,93.5171
2023-04-09T05:12:36.661Z,93.6987
2023-04-09T05:13:39.729Z,93.8570
2023-04-09T05:14:42.862Z,93.9305
2023-04-09T05:15:45.965Z,94.0069
2023-04-09T05:16:49.113Z,93.8821
2023-04-09T05:17:52.185Z,93.9757
2023-04-09T05:18:55.480Z,93.9982
2023-04-09T05:19:58.568Z,93.7920
2023-04-09T05:21:01.696Z,93.6090
2023-04-09T05:22:04.837Z,93.7919
2023-04-09T05:23:07.918Z,93.8224
2023-04-09T05:24:11.020Z,93.6861
2023-04-09T05:25:14.134Z,93.7238
2023-04-09T05:26:17.202Z,93.7427
2023-04-09T05:27:20.378Z,93.6817
2023-04-09T05:28:23.507Z,93.8231
2023-04-09T05:29:23.935Z,93.9323
2023-04-09T05:30:27.062Z,93.9803
2023-04-09T05:31:30.184Z,94.0986
2023-04-09T05:32:33.633Z,94.1237
2023-04-09T05:33:36.736Z,94.0821
2023-04-09T05:34:40.122Z,94.0558
2023-04-09T05:35:43.274Z,94.1360
2023-04-09T05:36:46.388Z,94.1955
2023-04-09T05:37:49.532Z,94.0629
2023-04-09T05:38:52.982Z,93.9812
2023-04-09T05:39:52.727Z,93.8807
2023-04-09T05:40:55.883Z,93.4379
2023-04-09T05:41:59.024Z,93.3734
2023-04-09T05:43:02.217Z,93.5070
2023-04-09T05:44:05.401Z,93.4033
2023-04-09T05:45:08.539Z,93.4158
2023-04-09T05:46:11.696Z,93.3522
2023-04-09T05:47:14.807Z,93.0845
2023-04-09T05:48:17.980Z,92.7194
2023-04-09T05:49:21.144Z,92.6563
2023-04-09T05:50:24.262Z,92.8676
2023-04-09T05:51:27.385Z,92.9111
2023-04-09T05:52:30.813Z,92.6522
2023-04-09T05:53:33.958Z,92.8201
2023-04-09T05:54:37.359Z,92.7473
2023-04-09T05:55:40.471Z,92.3340
2023-04-09T05:56:43.605Z,92.4201
2023-04-09T05:57:46.993Z,92.3476
2023-04-09T05:58:50.119Z,92.2180
2023-04-09T05:59:53.241Z,91.9770
2023-04-09T06:00:56.407Z,91.9899
2023-04-09T06:01:59.548Z,91.8657
2023-04-09T06:03:01.012Z,92.0983
2023-04-09T06:04:04.726Z,92.1447
2023-04-09T06:05:04.767Z,91.7355
2023-04-09T06:06:07.890Z,91.5545
2023-04-09T06:07:11.056Z,91.7632
2023-04-09T06:08:14.162Z,91.3715
2023-04-09T06:09:17.317Z,91.3179
2023-04-09T06:10:20.457Z,91.4056
2023-04-09T06:11:23.609Z,91.2044
2023-04-09T06:12:26.981Z,90.7905
2023-04-09T06:13:30.160Z,90.8506
2023-04-09T06:14:33.314Z,90.7139
2023-04-09T06:15:36.489Z,90.4731
2023-04-09T06:16:39.633Z,90.2613
2023-04-09T06:17:42.840Z,90.1362
2023-04-09T06:18:45.939Z,89.5443
2023-04-09T06:19:49.374Z,89.4948
2023-04-09T06:20:52.548Z,89.0568
2023-04-09T06:21:55.691Z,87.9830
2023-04-09T06:22:55.685Z,85.6920
2023-04-09T06:23:58.827Z,83.7125
2023-04-09T06:25:01.961Z,84.1381
2023-04-09T06:26:05.083Z,85.5093
2023-04-09T06:27:08.223Z,84.9909
2023-04-09T06:28:11.635Z,86.2666
2023-04-09T06:29:14.748Z,87.1653
2023-04-09T06:30:18.118Z,84.0172
2023-04-09T06:31:21.256Z,83.3440
2023-04-09T06:32:24.383Z,83.6015
2023-04-09T06:33:27.534Z,84.8816
2023-04-09T06:34:30.684Z,82.1187
2023-04-09T06:35:34.093Z,81.1902
2023-04-09T06:36:37.180Z,80.8136
2023-04-09T06:37:40.453Z,81.3797
2023-04-09T06:38:43.630Z,81.9211
2023-04-09T06:39:58.176Z,80.9723
2023-04-09T06:40:49.042Z,81.3884
2023-04-09T06:41:52.161Z,81.4722
2023-04-09T06:42:55.514Z,80.1986
2023-04-09T06:43:58.622Z,79.5554
2023-04-09T06:45:01.772Z,79.2568
2023-04-09T06:46:04.937Z,83.2904
2023-04-09T06:47:08.064Z,81.2808
2023-04-09T06:48:11.257Z,79.4761
2023-04-09T06:49:14.386Z,80.2436
2023-04-09T06:50:17.536Z,82.3839
2023-04-09T06:51:20.652Z,78.3825
2023-04-09T06:52:23.829Z,79.6856
2023-04-09T06:53:27.010Z,81.0936
2023-04-09T06:54:30.143Z,80.5774
2023-04-09T06:55:33.304Z,78.1462
2023-04-09T06:56:36.450Z,78.7985
2023-04-09T06:57:39.674Z,82.7872
2023-04-09T06:58:42.825Z,82.9688
2023-04-09T06:59:45.931Z,82.8921
2023-04-09T07:00:49.072Z,83.1245
2023-04-09T07:01:54.570Z,84.4955
2023-04-09T07:02:54.522Z,84.0252
2023-04-09T07:03:58.034Z,85.1575
2023-04-09T07:04:57.856Z,85.1202
2023-04-09T07:06:00.958Z,84.5829
2023-04-09T07:07:04.084Z,84.0713
2023-04-09T07:08:07.218Z,83.3544
2023-04-09T07:09:10.463Z,83.6441
2023-04-09T07:10:13.587Z,83.9785
2023-04-09T07:11:16.714Z,83.3603
2023-04-09T07:12:19.843Z,84.6411
2023-04-09T07:13:22.995Z,84.8158
2023-04-09T07:14:26.166Z,85.2215
2023-04-09T07:15:29.305Z,85.0490
2023-04-09T07:16:32.602Z,83.6910
2023-04-09T07:17:35.772Z,84.0491
2023-04-09T07:18:38.903Z,83.8831
2023-04-09T07:19:42.049Z,84.7847
2023-04-09T07:20:45.208Z,85.2294
2023-04-09T07:21:48.354Z,84.9255
2023-04-09T07:22:51.469Z,84.6938
2023-04-09T07:23:54.876Z,84.3252
2023-04-09T07:24:54.668Z,83.9997
2023-04-09T07:25:57.808Z,84.1100
2023-04-09T07:27:00.932Z,82.4008
2023-04-09T07:28:04.279Z,81.9442
2023-04-09T07:29:07.435Z,82.8599
2023-04-09T07:30:10.587Z,83.7257
2023-04-09T07:31:13.705Z,84.9018
2023-04-09T07:32:16.877Z,84.4317
2023-04-09T07:33:20.003Z,83.5165
2023-04-09T07:34:23.185Z,82.7489
2023-04-09T07:35:26.321Z,80.9680
2023-04-09T07:36:29.573Z,81.6444
2023-04-09T07:37:32.767Z,80.2600
2023-04-09T07:38:36.291Z,79.9718
2023-04-09T07:39:39.404Z,80.3233
2023-04-09T07:40:42.584Z,80.4161
2023-04-09T07:41:45.718Z,79.4046
2023-04-09T07:42:48.886Z,78.8187
2023-04-09T07:43:51.990Z,79.2484
2023-04-09T07:44:55.117Z,82.2938
2023-04-09T07:45:58.596Z,83.4580
2023-04-09T07:47:01.846Z,82.8945
2023-04-09T07:48:05.229Z,83.2843
2023-04-09T07:49:08.392Z,83.3967
2023-04-09T07:50:11.588Z,82.8459
2023-04-09T07:51:14.691Z,83.1353
2023-04-09T07:52:17.837Z,83.2343
2023-04-09T07:53:21.213Z,82.5232
2023-04-09T07:54:24.392Z,80.8173
2023-04-09T07:55:27.506Z,81.7474
2023-04-09T07:56:30.662Z,82.3863
2023-04-09T07:57:33.821Z,82.0532
2023-04-09T07:58:36.970Z,78.6196
2023-04-09T07:59:40.111Z,78.2645
2023-04-09T08:00:43.237Z,78.8951
2023-04-09T08:01:46.511Z,79.9259
2023-04-09T08:02:46.616Z,80.8280
2023-04-09T08:03:50.061Z,80.8413
2023-04-09T08:04:49.953Z,81.4080
2023-04-09T08:05:51.221Z,80.8826
2023-04-09T08:06:54.333Z,77.6566
2023-04-09T08:07:57.502Z,74.0174
2023-04-09T08:09:00.635Z,74.5210
2023-04-09T08:10:03.810Z,77.5899
2023-04-09T08:11:06.957Z,78.8008
2023-04-09T08:12:10.101Z,79.1352
2023-04-09T08:13:13.273Z,80.7630
2023-04-09T08:14:16.450Z,80.9958
2023-04-09T08:15:19.550Z,81.0142
2023-04-09T08:16:22.715Z,80.5022
2023-04-09T08:17:25.885Z,79.6569
2023-04-09T08:18:28.996Z,76.2702
2023-04-09T08:19:32.178Z,72.7145
2023-04-09T08:20:35.307Z,74.1870
2023-04-09T08:21:38.467Z,75.0761
2023-04-09T08:22:41.568Z,76.8900
2023-04-09T08:23:44.729Z,78.5092
2023-04-09T08:24:47.852Z,79.2589
2023-04-09T08:25:50.990Z,78.6547
2023-04-09T08:26:54.179Z,73.1663
2023-04-09T08:27:57.341Z,70.0968
2023-04-09T08:29:00.451Z,75.1535
2023-04-09T08:30:03.674Z,74.6885
2023-04-09T08:31:06.834Z,76.0439
2023-04-09T08:32:10.008Z,77.6859
2023-04-09T08:33:13.154Z,77.5987
2023-04-09T08:34:16.303Z,77.8835
2023-04-09T08:35:19.457Z,77.4418
2023-04-09T08:36:22.655Z,77.4051
2023-04-09T08:37:25.766Z,77.4896
2023-04-09T08:38:28.989Z,76.7897
2023-04-09T08:39:32.095Z,77.9292
2023-04-09T08:40:35.225Z,75.2477
2023-04-09T08:41:38.339Z,73.2138
2023-04-09T08:42:41.525Z,70.5317
2023-04-09T08:43:56.911Z,67.5488
2023-04-09T08:44:46.709Z,73.6098
2023-04-09T08:45:49.839Z,76.9848
2023-04-09T08:46:52.940Z,74.7937
2023-04-09T08:47:56.326Z,73.4801
2023-04-09T08:48:59.413Z,69.1300
2023-04-09T08:50:02.542Z,71.9621
2023-04-09T08:51:05.668Z,73.7197
2023-04-09T08:52:08.825Z,73.1981
2023-04-09T08:53:11.978Z,72.3471
2023-04-09T08:54:15.109Z,71.1175
2023-04-09T08:55:18.227Z,69.6006
2023-04-09T08:56:21.378Z,72.8313
2023-04-09T08:57:24.492Z,72.3461
2023-04-09T08:58:27.701Z,71.9715
2023-04-09T08:59:30.873Z,73.0259
2023-04-09T09:00:34.132Z,73.5507
2023-04-09T09:01:37.398Z,72.0661
2023-04-09T09:02:40.605Z,67.0069
2023-04-09T09:03:43.793Z,68.9782
2023-04-09T09:04:46.948Z,69.5348
2023-04-09T09:05:50.047Z,69.4664
2023-04-09T09:06:54.783Z,69.7698
2023-04-09T09:07:55.776Z,66.4252
2023-04-09T09:08:58.922Z,65.6578
2023-04-09T09:10:02.056Z,64.8089
2023-04-09T09:11:05.202Z,67.9022
2023-04-09T09:12:08.327Z,67.2273
2023-04-09T09:13:11.448Z,68.3563
2023-04-09T09:14:14.604Z,67.5142
2023-04-09T09:15:17.737Z,67.5545
2023-04-09T09:16:20.967Z,69.3176
2023-04-09T09:17:24.122Z,68.3364
2023-04-09T09:18:27.241Z,65.3309
2023-04-09T09:19:30.411Z,62.5959
2023-04-09T09:20:33.566Z,63.7271
2023-04-09T09:21:36.730Z,69.3615
2023-04-09T09:22:39.834Z,67.6052
2023-04-09T09:23:42.964Z,67.5082
2023-04-09T09:24:47.622Z,67.9040
2023-04-09T09:25:48.039Z,69.2410
2023-04-09T09:26:51.178Z,71.2625
2023-04-09T09:27:54.359Z,69.2160
2023-04-09T09:28:57.488Z,67.3727
2023-04-09T09:30:00.649Z,65.4773
2023-04-09T09:31:03.794Z,66.0239
2023-04-09T09:32:06.930Z,62.5365
2023-04-09T09:33:10.098Z,64.0824
2023-04-09T09:34:13.226Z,63.6563
2023-04-09T09:35:16.371Z,64.9478
2023-04-09T09:36:19.530Z,67.0906
2023-04-09T09:37:22.684Z,67.0663
2023-04-09T09:38:26.052Z,65.5206
2023-04-09T09:39:29.175Z,63.2670
2023-04-09T09:40:32.490Z,61.1798
2023-04-09T09:41:35.608Z,63.5649
2023-04-09T09:42:38.772Z,64.4065
2023-04-09T09:43:42.172Z,64.9775
2023-04-09T09:44:45.337Z,65.2683
2023-04-09T09:45:48.495Z,63.9621
2023-04-09T09:46:51.632Z,64.5026
2023-04-09T09:47:54.867Z,61.0761
2023-04-09T09:48:58.016Z,62.4750
2023-04-09T09:50:01.178Z,62.9476
2023-04-09T09:51:04.509Z,64.7956
2023-04-09T09:52:07.635Z,61.4114
2023-04-09T09:53:10.951Z,63.7246
2023-04-09T09:54:14.042Z,63.4160
2023-04-09T09:55:17.175Z,63.3230
2023-04-09T09:56:20.328Z,63.5618
2023-04-09T09:57:23.471Z,64.4032
2023-04-09T09:58:26.626Z,63.3153
2023-04-09T09:59:29.752Z,63.4636
2023-04-09T10:00:33.168Z,65.2817
2023-04-09T10:01:36.348Z,64.8309
2023-04-09T10:02:39.615Z,62.0768
2023-04-09T10:03:42.733Z,60.1277
2023-04-09T10:04:45.968Z,60.6204
2023-04-09T10:05:49.169Z,60.5817
2023-04-09T10:06:53.425Z,60.2987
2023-04-09T10:07:53.283Z,58.5100
2023-04-09T10:08:56.664Z,59.2304
2023-04-09T10:09:59.801Z,60.4611
2023-04-09T10:11:02.910Z,59.2233
2023-04-09T10:12:06.050Z,56.6778
2023-04-09T10:13:09.190Z,56.9169
2023-04-09T10:14:12.313Z,56.9145
2023-04-09T10:15:15.488Z,55.3794
2023-04-09T10:16:18.605Z,55.1549
2023-04-09T10:17:21.818Z,55.3509
2023-04-09T10:18:24.979Z,56.0373
2023-04-09T10:19:28.113Z,57.3025
2023-04-09T10:20:31.232Z,57.1854
2023-04-09T10:21:34.373Z,58.2350
2023-04-09T10:22:37.525Z,61.9667
2023-04-09T10:23:40.695Z,61.8495
2023-04-09T10:24:43.821Z,61.4399
2023-04-09T10:25:46.991Z,60.9495
2023-04-09T10:26:50.277Z,59.4211
2023-04-09T10:27:53.456Z,56.5283
2023-04-09T10:28:56.573Z,57.1322
2023-04-09T10:29:59.710Z,56.1262
2023-04-09T10:31:02.990Z,57.6846
2023-04-09T10:32:06.205Z,58.4220
2023-04-09T10:33:09.354Z,58.8700
2023-04-09T10:34:12.473Z,58.9155
2023-04-09T10:35:15.634Z,57.7232
2023-04-09T10:36:18.796Z,56.9384
2023-04-09T10:37:21.917Z,55.5474
2023-04-09T10:38:25.036Z,53.0609
2023-04-09T10:39:28.199Z,57.2560
2023-04-09T10:40:31.312Z,56.5465
2023-04-09T10:41:34.451Z,52.8047
2023-04-09T10:42:37.578Z,53.0784
2023-04-09T10:43:40.745Z,51.5053
2023-04-09T10:44:43.894Z,53.2283
2023-04-09T10:45:47.031Z,53.4006
2023-04-09T10:46:50.281Z,52.2576
2023-04-09T10:47:53.492Z,52.6513
2023-04-09T10:48:56.614Z,53.6500
2023-04-09T10:49:59.756Z,52.7315
2023-04-09T10:51:03.056Z,52.0366
2023-04-09T10:52:06.173Z,51.9019
2023-04-09T10:53:09.302Z,51.4490
2023-04-09T10:54:12.545Z,50.5035
2023-04-09T10:55:15.647Z,48.9239
2023-04-09T10:56:18.787Z,49.2209
2023-04-09T10:57:21.918Z,51.4015
2023-04-09T10:58:25.116Z,51.5282
2023-04-09T10:59:28.278Z,51.6239
2023-04-09T11:00:31.394Z,50.3362
2023-04-09T11:01:34.654Z,51.6170
2023-04-09T11:02:37.927Z,50.7646
2023-04-09T11:03:41.130Z,49.5080
2023-04-09T11:04:44.351Z,50.0403
2023-04-09T11:05:47.524Z,49.8824
2023-04-09T11:06:50.712Z,51.0265
2023-04-09T11:07:53.839Z,50.0796
2023-04-09T11:08:56.970Z,51.4249
2023-04-09T11:10:00.141Z,48.4515
2023-04-09T11:11:00.160Z,47.7519
2023-04-09T11:12:03.235Z,50.1451
2023-04-09T11:13:06.377Z,49.0213
2023-04-09T11:14:07.639Z,50.2344
2023-04-09T11:15:10.824Z,50.4574
2023-04-09T11:16:24.350Z,49.9412
2023-04-09T11:17:16.290Z,46.9943
2023-04-09T11:18:19.418Z,47.0015
2023-04-09T11:19:22.579Z,48.5669
2023-04-09T11:20:25.725Z,50.6308
2023-04-09T11:21:29.167Z,47.6229
2023-04-09T11:22:32.364Z,48.6353
2023-04-09T11:23:35.710Z,50.4645
2023-04-09T11:24:38.788Z,48.4765
2023-04-09T11:25:41.990Z,47.1551
2023-04-09T11:26:45.113Z,46.4267
2023-04-09T11:27:48.276Z,47.1948
2023-04-09T11:28:51.630Z,47.7374
2023-04-09T11:29:54.874Z,46.8648
2023-04-09T11:30:58.007Z,45.6354
2023-04-09T11:32:01.307Z,46.0696
2023-04-09T11:33:04.550Z,47.3365
2023-04-09T11:34:07.741Z,46.5950
2023-04-09T11:35:10.866Z,45.0724
2023-04-09T11:36:13.998Z,45.8987
2023-04-09T11:37:17.125Z,45.7866
2023-04-09T11:38:20.480Z,44.9265
2023-04-09T11:39:23.626Z,46.4807
2023-04-09T11:40:26.762Z,48.9431
2023-04-09T11:41:29.912Z,49.8422
2023-04-09T11:42:33.028Z,50.6948
2023-04-09T11:43:36.187Z,50.0333
2023-04-09T11:44:39.392Z,49.7808
2023-04-09T11:45:42.544Z,49.4237
2023-04-09T11:46:45.804Z,51.9098
2023-04-09T11:47:48.963Z,50.9567
2023-04-09T11:48:52.319Z,48.8146
2023-04-09T11:49:55.536Z,47.5529
2023-04-09T11:50:58.872Z,47.4160
2023-04-09T11:52:02.024Z,45.8638
2023-04-09T11:53:05.245Z,45.3900
2023-04-09T11:54:08.408Z,45.0468
2023-04-09T11:55:11.597Z,46.1877
2023-04-09T11:56:14.747Z,42.6356
2023-04-09T11:57:17.942Z,41.0013
2023-04-09T11:58:21.179Z,44.5402
2023-04-09T11:59:24.367Z,43.0393
2023-04-09T12:00:27.521Z,42.2907
2023-04-09T12:01:30.705Z,44.9458
2023-04-09T12:02:34.017Z,45.2404
2023-04-09T12:03:37.436Z,44.6895
2023-04-09T12:04:37.401Z,43.8350
2023-04-09T12:05:42.832Z,43.8576
2023-04-09T12:06:43.910Z,45.2607
2023-04-09T12:07:55.570Z,46.0474
2023-04-09T12:08:49.243Z,44.0573
2023-04-09T12:09:52.453Z,46.8304
2023-04-09T12:10:55.816Z,43.6048
2023-04-09T12:11:58.991Z,42.6980
2023-04-09T12:13:02.160Z,42.9166
2023-04-09T12:14:05.355Z,44.1101
2023-04-09T12:15:08.528Z,43.1270
2023-04-09T12:16:11.801Z,41.0203
2023-04-09T12:17:14.991Z,40.8855
2023-04-09T12:18:18.154Z,42.1926
2023-04-09T12:19:21.363Z,43.1489
2023-04-09T12:20:24.520Z,42.8954
2023-04-09T12:21:27.713Z,42.6405
2023-04-09T12:22:30.871Z,42.5388
2023-04-09T12:23:34.103Z,42.8181
2023-04-09T12:24:37.254Z,41.7424
2023-04-09T12:25:40.468Z,41.3776
2023-04-09T12:26:43.603Z,43.8050
2023-04-09T12:27:46.792Z,43.5850
2023-04-09T12:28:50.250Z,43.1115
2023-04-09T12:29:53.503Z,43.9087
2023-04-09T12:30:56.702Z,45.5209
2023-04-09T12:32:00.005Z,45.4136
2023-04-09T12:33:03.345Z,45.1327
2023-04-09T12:34:03.417Z,42.3999
2023-04-09T12:35:06.658Z,43.5188
2023-04-09T12:36:10.069Z,43.9815
2023-04-09T12:37:13.273Z,44.3129
2023-04-09T12:38:16.419Z,43.3808
2023-04-09T12:39:19.643Z,41.7613
2023-04-09T12:40:22.830Z,43.4626
2023-04-09T12:41:26.074Z,40.7897
2023-04-09T12:42:29.267Z,39.9823